Portada
METAR-TAF:

METAR-TAF

Aeropuertos :

Aeropuerto de Burgos

Burgos, España

latitud: 42-22N, longitud: 003-38W, altitud: 894 m

Observación

El informe se hizo hace 38 minutos, a las 19:00 UTC
Viento 9 kt del sur
Temperatura 6°C
Humedad 87%
Presión 1011 hPa
Visibilidad 10 km o más
Escasas nubes a una altura de 2400 ft
Nubes dispersas a una altura de 3400 ft

METAR: LEBG 211900Z 18009KT 9999 FEW024 SCT034 06/04 Q1011

Hora: 20:38 (19:38 UTC)

Pronóstico

El informe se hizo hace 2 horas y 38 minutos, a las 17:00 UTC
Pronóstico válido del 21 a las 18 UTC al 22 a las 03 UTC
Viento 7 kt del suroeste
Visibilidad 10 km o más
Nubes dispersas a una altura de 4000 ft
Probabilidad 30% :
Temporalmente
del 21 a las 18 UTC al 21 a las 20 UTC
Visibilidad: 3500 m
Cielo nuboso a una altura de 1200 ft
Nubes dispersas a una altura de 2000 ft, Cumulus congestus.
chaparrones de lluvia

TAF: LEBG 211700Z 2118/2203 22007KT 9999 SCT040 PROB30 TEMPO 2118/2120 3500 SHRA BKN012 SCT020TCU

Observaciones y pronósticos meteorológicos de más de 4000 aeropuertos (mensajes METAR y TAF).

Los puntos amarillos y rojos representan las estaciones disponibles.

Ponga el ratón en el punto deseado para ver el nombre de la estación.

Haga clic para ver las observaciones y los pronósticos meteorológicos.

Para cambiar el mapa : haga clic en los botones verdes con una cruz de color negro para hacer un zoom, en el botón verde con un guión para alejar o en las flechas verdes para mapas adyacentes.


METAR-TAF: